Time;durP1;ratioP1;P1;durP2;ratioP2;P2;SDS_P1;SDS_P2;PMS_P1;PMS_P2;Temp;Humidity;BMP_temperature;BMP_pressure;BME280_temperature;BME280_humidity;BME280_pressure;Samples;Min_cycle;Max_cycle;Signal;HPM_P1;HPM_P2
2022/08/09 00:02:06;;;;;;;3.38;3.08;;;17.20;96.40;;;;;;5090472;28;20157;-44
2022/08/09 00:04:32;;;;;;;3.85;3.15;;;17.20;96.70;;;;;;5072903;28;20138;-44
2022/08/09 00:06:58;;;;;;;7.07;3.90;;;17.20;96.80;;;;;;5088808;28;20028;-45
2022/08/09 00:09:24;;;;;;;5.38;3.67;;;17.10;97.40;;;;;;5082080;28;20027;-45
2022/08/09 00:11:50;;;;;;;4.22;3.53;;;17.10;97.80;;;;;;5090247;28;20024;-47
2022/08/09 00:14:16;;;;;;;4.00;3.50;;;17.10;98.30;;;;;;5090839;28;20372;-44
2022/08/09 00:16:41;;;;;;;3.88;3.42;;;17.00;98.80;;;;;;5090785;28;20082;-44
2022/08/09 00:19:08;;;;;;;4.65;3.95;;;17.00;99.50;;;;;;5090840;28;20503;-44
2022/08/09 00:21:33;;;;;;;4.32;3.60;;;17.00;99.70;;;;;;5088769;28;20111;-44
2022/08/09 00:23:59;;;;;;;6.43;3.50;;;16.90;99.90;;;;;;5090392;28;20142;-43
2022/08/09 00:26:26;;;;;;;5.05;4.00;;;16.90;99.90;;;;;;5090806;28;20024;-44
2022/08/09 00:28:52;;;;;;;4.10;3.55;;;16.90;99.90;;;;;;5090532;28;20218;-44
2022/08/09 00:31:18;;;;;;;4.30;3.85;;;16.90;99.90;;;;;;5089861;28;20128;-44
2022/08/09 00:33:44;;;;;;;4.55;3.45;;;16.80;99.90;;;;;;5090517;28;20031;-44
2022/08/09 00:36:10;;;;;;;8.13;3.80;;;16.80;99.90;;;;;;5089842;28;20020;-44
2022/08/09 00:38:36;;;;;;;4.10;3.70;;;16.80;99.90;;;;;;5070513;28;20016;-44
2022/08/09 00:41:02;;;;;;;4.25;3.33;;;16.80;99.90;;;;;;5069543;28;20048;-44
2022/08/09 00:43:30;;;;;;;4.20;3.70;;;16.70;99.90;;;;;;5070500;28;20035;-43
2022/08/09 00:45:55;;;;;;;5.38;3.92;;;16.70;99.90;;;;;;5070228;28;20058;-44
2022/08/09 00:48:21;;;;;;;5.43;4.13;;;16.70;99.90;;;;;;5070011;28;20028;-44
2022/08/09 00:50:47;;;;;;;5.03;3.58;;;16.70;99.90;;;;;;5069375;28;20491;-43
2022/08/09 00:53:13;;;;;;;5.55;3.10;;;16.60;99.90;;;;;;5069940;28;20096;-43
2022/08/09 00:55:39;;;;;;;6.03;4.03;;;16.60;99.90;;;;;;5069679;28;20117;-44
2022/08/09 00:58:05;;;;;;;7.00;3.55;;;16.60;99.90;;;;;;5069977;28;20102;-45
2022/08/09 01:00:30;;;;;;;4.72;3.85;;;16.60;99.90;;;;;;5069520;28;20064;-44
2022/08/09 01:03:18;;;;;;;6.25;3.88;;;16.60;99.90;;;;;;5068255;28;20028;-43
2022/08/09 01:06:08;;;;;;;4.43;3.67;;;16.60;99.90;;;;;;5069748;28;20025;-43
2022/08/09 01:08:46;;;;;;;8.50;4.72;;;16.50;99.90;;;;;;5080957;28;20016;-43
2022/08/09 01:11:32;;;;;;;4.65;3.80;;;16.50;99.90;;;;;;5076895;28;20028;-45
2022/08/09 01:14:08;;;;;;;5.13;4.20;;;16.60;99.90;;;;;;5089725;28;20515;-43
2022/08/09 01:16:38;;;;;;;7.05;4.07;;;16.60;99.90;;;;;;5088419;28;20032;-45
2022/08/09 01:19:35;;;;;;;6.35;3.83;;;16.60;99.90;;;;;;5089869;28;20048;-43
2022/08/09 01:22:27;;;;;;;7.13;4.30;;;16.60;99.90;;;;;;5085843;28;20040;-45
2022/08/09 01:25:29;;;;;;;5.93;3.30;;;16.50;99.90;;;;;;5073756;28;20553;-46
2022/08/09 01:27:57;;;;;;;4.35;3.75;;;16.50;99.90;;;;;;5089280;28;20108;-44
2022/08/09 01:30:25;;;;;;;8.13;4.72;;;16.50;99.90;;;;;;5088096;28;20357;-44
2022/08/09 01:32:52;;;;;;;6.65;4.18;;;16.50;99.90;;;;;;5088703;28;20020;-44
2022/08/09 01:35:33;;;;;;;3.83;3.42;;;16.50;99.90;;;;;;5089143;28;20118;-43
2022/08/09 01:38:03;;;;;;;6.68;3.70;;;16.40;99.90;;;;;;5089200;28;20514;-43
2022/08/09 01:40:32;;;;;;;5.97;3.63;;;16.40;99.90;;;;;;5083625;28;20042;-44
2022/08/09 01:42:58;;;;;;;5.35;3.90;;;16.30;99.90;;;;;;5082465;28;20487;-43
2022/08/09 01:45:25;;;;;;;9.82;4.88;;;16.30;99.90;;;;;;5088095;28;20059;-43
2022/08/09 01:47:51;;;;;;;5.68;4.43;;;16.30;99.90;;;;;;5089364;28;20525;-43
2022/08/09 01:50:19;;;;;;;5.13;4.07;;;16.30;99.90;;;;;;5089273;28;20027;-43
2022/08/09 01:52:46;;;;;;;10.40;4.63;;;16.30;99.90;;;;;;5088707;28;20028;-44
2022/08/09 01:55:13;;;;;;;6.28;4.18;;;16.30;99.90;;;;;;5089001;28;20032;-43
2022/08/09 01:57:43;;;;;;;6.88;4.10;;;16.30;99.90;;;;;;5089449;28;20070;-43
2022/08/09 02:00:11;;;;;;;6.40;3.80;;;16.20;99.90;;;;;;5089322;28;20067;-43
2022/08/09 02:02:41;;;;;;;4.90;3.90;;;16.20;99.90;;;;;;5088412;28;20621;-44
2022/08/09 02:05:09;;;;;;;5.93;4.13;;;16.20;99.90;;;;;;5088951;28;20030;-43
2022/08/09 02:07:55;;;;;;;7.80;4.45;;;16.20;99.90;;;;;;5088763;28;20266;-43
2022/08/09 02:10:38;;;;;;;6.95;4.53;;;16.20;99.90;;;;;;5083087;28;20031;-44
2022/08/09 02:13:07;;;;;;;7.50;4.43;;;16.20;99.90;;;;;;5084524;28;20027;-43
2022/08/09 02:15:37;;;;;;;5.43;4.18;;;16.10;99.90;;;;;;5087393;28;20108;-43
2022/08/09 02:18:04;;;;;;;6.22;4.38;;;16.10;99.90;;;;;;5080214;28;20513;-45
2022/08/09 02:20:31;;;;;;;8.90;4.50;;;16.10;99.90;;;;;;5089127;28;20074;-44
2022/08/09 02:23:12;;;;;;;4.25;3.83;;;16.10;99.90;;;;;;5081141;28;20115;-43
2022/08/09 02:25:41;;;;;;;6.53;4.32;;;16.00;99.90;;;;;;5072782;28;20032;-43
2022/08/09 02:28:13;;;;;;;4.60;4.10;;;16.00;99.90;;;;;;5080647;28;20029;-44
2022/08/09 02:30:50;;;;;;;5.30;3.97;;;15.90;99.90;;;;;;5068236;28;20484;-42
2022/08/09 02:33:24;;;;;;;4.72;3.75;;;15.90;99.90;;;;;;5068476;28;20029;-46
2022/08/09 02:35:56;;;;;;;6.60;4.18;;;15.90;99.90;;;;;;5068842;28;20100;-45
2022/08/09 02:38:27;;;;;;;7.57;3.80;;;15.80;99.90;;;;;;5068425;28;20391;-44
2022/08/09 02:40:57;;;;;;;6.18;4.18;;;15.80;99.90;;;;;;5067821;28;20449;-46
2022/08/09 02:43:25;;;;;;;7.85;4.10;;;15.80;99.90;;;;;;5068097;28;20024;-43
2022/08/09 02:45:51;;;;;;;7.22;4.22;;;15.80;99.90;;;;;;5067313;28;20039;-45
2022/08/09 02:48:19;;;;;;;4.53;3.85;;;15.80;99.90;;;;;;5080107;28;20494;-45
2022/08/09 02:50:51;;;;;;;6.07;4.25;;;15.80;99.90;;;;;;5085301;28;20031;-44
2022/08/09 02:53:25;;;;;;;6.35;4.00;;;15.80;99.90;;;;;;5077281;28;20039;-43
2022/08/09 02:55:53;;;;;;;6.55;4.20;;;15.70;99.90;;;;;;5087002;28;20042;-43
2022/08/09 02:58:21;;;;;;;8.88;4.18;;;15.70;99.90;;;;;;5088407;28;20109;-43
2022/08/09 03:00:48;;;;;;;6.40;3.88;;;15.70;99.90;;;;;;5087627;28;20136;-43
2022/08/09 03:03:15;;;;;;;6.05;3.95;;;15.70;99.90;;;;;;5088639;28;20028;-43
2022/08/09 03:05:43;;;;;;;4.75;4.35;;;15.70;99.90;;;;;;5088237;28;20028;-43
2022/08/09 03:08:10;;;;;;;5.60;3.95;;;15.60;99.90;;;;;;5088263;28;20034;-44
2022/08/09 03:10:36;;;;;;;4.82;4.20;;;15.60;99.90;;;;;;5080303;28;20020;-43
2022/08/09 03:13:03;;;;;;;7.88;3.85;;;15.50;99.90;;;;;;5078317;28;20016;-43
2022/08/09 03:15:29;;;;;;;4.85;4.30;;;15.50;99.90;;;;;;5078151;28;20021;-46
2022/08/09 03:17:55;;;;;;;6.65;4.65;;;15.60;99.90;;;;;;5079626;28;20624;-44
2022/08/09 03:20:22;;;;;;;5.63;4.50;;;15.60;99.90;;;;;;5087999;28;20028;-47
2022/08/09 03:22:48;;;;;;;6.50;4.75;;;15.50;99.90;;;;;;5082468;28;20031;-44
2022/08/09 03:25:14;;;;;;;7.68;5.05;;;15.50;99.90;;;;;;5088878;28;20042;-47
2022/08/09 03:27:42;;;;;;;6.90;4.53;;;15.40;99.90;;;;;;5092005;28;20031;-46
2022/08/09 03:30:09;;;;;;;6.80;5.15;;;15.40;99.90;;;;;;5092002;28;20032;-44
2022/08/09 03:32:36;;;;;;;6.20;4.32;;;15.30;99.90;;;;;;5091547;28;20039;-44
2022/08/09 03:35:02;;;;;;;6.68;4.78;;;15.40;99.90;;;;;;5091857;28;20368;-43
2022/08/09 03:37:28;;;;;;;5.85;4.72;;;15.40;99.90;;;;;;5091191;28;20024;-45
2022/08/09 03:39:53;;;;;;;6.05;4.65;;;15.40;99.90;;;;;;5076579;28;20078;-44
2022/08/09 03:42:19;;;;;;;7.97;5.20;;;15.40;99.90;;;;;;5070155;28;20031;-43
2022/08/09 03:44:44;;;;;;;5.80;4.50;;;15.30;99.90;;;;;;5070807;28;20028;-43
2022/08/09 03:47:10;;;;;;;5.93;4.30;;;15.20;99.90;;;;;;5071039;28;20025;-43
2022/08/09 03:49:37;;;;;;;7.00;4.85;;;15.10;99.90;;;;;;5070964;28;20094;-44
2022/08/09 03:52:04;;;;;;;7.45;4.55;;;15.10;99.90;;;;;;5077348;28;20031;-43
2022/08/09 03:54:33;;;;;;;6.65;4.40;;;15.10;99.90;;;;;;5082987;28;20035;-45
2022/08/09 03:57:05;;;;;;;6.65;4.93;;;15.10;99.90;;;;;;5091193;28;20035;-43
2022/08/09 03:59:31;;;;;;;7.97;5.30;;;15.10;99.90;;;;;;5091216;28;20706;-45
2022/08/09 04:01:58;;;;;;;5.45;4.45;;;15.10;99.90;;;;;;5087438;28;20040;-43
2022/08/09 04:04:26;;;;;;;7.57;4.75;;;15.10;99.90;;;;;;5070287;28;20021;-45
2022/08/09 04:06:51;;;;;;;10.90;5.47;;;15.10;99.90;;;;;;5070083;28;20527;-42
2022/08/09 04:09:17;;;;;;;4.75;4.07;;;15.10;99.90;;;;;;5070179;28;20024;-43
2022/08/09 04:12:01;;;;;;;5.47;3.95;;;15.10;99.90;;;;;;5068259;28;20056;-44
2022/08/09 04:14:26;;;;;;;6.05;4.10;;;15.00;99.90;;;;;;5067815;28;20025;-43
2022/08/09 04:16:52;;;;;;;9.60;4.15;;;15.00;99.90;;;;;;5070725;28;20437;-44
2022/08/09 04:19:17;;;;;;;5.18;4.63;;;15.00;99.90;;;;;;5069983;28;20034;-47
2022/08/09 04:21:44;;;;;;;9.57;5.75;;;15.10;99.90;;;;;;5068452;28;20035;-45
2022/08/09 04:24:09;;;;;;;8.20;4.60;;;15.10;99.90;;;;;;5068141;28;20056;-44
2022/08/09 04:26:35;;;;;;;7.07;4.72;;;15.10;99.90;;;;;;5072310;28;20455;-42
2022/08/09 04:29:00;;;;;;;7.07;4.43;;;15.10;99.90;;;;;;5069641;28;20028;-43
2022/08/09 04:31:26;;;;;;;6.15;4.10;;;15.10;99.90;;;;;;5071273;28;20020;-44
2022/08/09 04:33:51;;;;;;;5.68;4.25;;;15.10;99.90;;;;;;5071072;28;20023;-43
2022/08/09 04:36:17;;;;;;;7.07;5.35;;;15.10;99.90;;;;;;5069942;28;20021;-43
2022/08/09 04:38:43;;;;;;;5.47;4.15;;;15.00;99.90;;;;;;5068816;28;20036;-43
2022/08/09 04:41:08;;;;;;;8.02;5.03;;;15.00;99.90;;;;;;5072866;28;20028;-45
2022/08/09 04:43:34;;;;;;;5.78;4.32;;;15.00;99.90;;;;;;5069691;28;20028;-43
2022/08/09 04:46:00;;;;;;;10.32;4.88;;;15.10;99.90;;;;;;5070035;28;20048;-43
2022/08/09 04:48:26;;;;;;;4.82;3.90;;;15.00;99.90;;;;;;5070005;28;20023;-46
2022/08/09 04:50:51;;;;;;;5.28;4.13;;;15.10;99.90;;;;;;5067601;28;20025;-42
2022/08/09 04:53:17;;;;;;;11.30;5.20;;;15.00;99.90;;;;;;5069708;28;20325;-46
2022/08/09 04:55:43;;;;;;;6.20;5.03;;;15.10;99.90;;;;;;5069956;28;20396;-42
2022/08/09 04:58:08;;;;;;;9.75;4.70;;;15.10;99.90;;;;;;5069834;28;20392;-43
2022/08/09 05:00:34;;;;;;;9.10;5.38;;;15.20;99.90;;;;;;5069265;28;20020;-43
2022/08/09 05:03:04;;;;;;;5.78;4.65;;;15.20;99.90;;;;;;5076399;28;20100;-43
2022/08/09 05:05:30;;;;;;;5.57;5.00;;;15.20;99.90;;;;;;5083227;28;20020;-42
2022/08/09 05:07:55;;;;;;;6.32;4.45;;;15.20;99.90;;;;;;5079963;28;20099;-45
2022/08/09 05:10:21;;;;;;;6.80;4.63;;;15.20;99.90;;;;;;5084234;28;20082;-45
2022/08/09 05:12:47;;;;;;;8.02;5.05;;;15.20;99.90;;;;;;5079124;28;20028;-44
2022/08/09 05:15:12;;;;;;;5.25;4.47;;;15.20;99.90;;;;;;5080970;28;20016;-46
2022/08/09 05:17:38;;;;;;;6.00;4.80;;;15.20;99.90;;;;;;5085770;28;20380;-46
2022/08/09 05:20:05;;;;;;;8.20;5.00;;;15.20;99.90;;;;;;5082999;28;20024;-44
2022/08/09 05:22:30;;;;;;;5.75;5.15;;;15.30;99.90;;;;;;5082387;28;20203;-46
2022/08/09 05:24:56;;;;;;;6.40;4.78;;;15.30;99.90;;;;;;5080612;28;20025;-45
2022/08/09 05:27:21;;;;;;;7.85;4.97;;;15.30;99.90;;;;;;5077867;28;20188;-46
2022/08/09 05:29:47;;;;;;;5.88;4.72;;;15.40;99.90;;;;;;5082965;28;20433;-45
2022/08/09 05:32:12;;;;;;;7.32;5.00;;;15.40;99.90;;;;;;5079887;28;20108;-47
2022/08/09 05:34:38;;;;;;;6.75;4.57;;;15.50;99.90;;;;;;5080872;28;20051;-47
2022/08/09 05:37:05;;;;;;;9.90;5.13;;;15.60;99.90;;;;;;5089352;28;20024;-45
2022/08/09 05:39:31;;;;;;;6.95;4.55;;;15.70;99.90;;;;;;5089351;28;20513;-45
2022/08/09 05:41:57;;;;;;;7.57;4.72;;;15.80;99.90;;;;;;5087864;28;20036;-44
2022/08/09 05:44:23;;;;;;;6.95;4.45;;;15.90;99.90;;;;;;5087667;28;20020;-47
2022/08/09 05:46:48;;;;;;;4.68;4.20;;;16.10;99.90;;;;;;5088154;28;20020;-44
2022/08/09 05:49:14;;;;;;;8.38;4.15;;;16.30;99.90;;;;;;5088884;28;20024;-44
2022/08/09 05:51:39;;;;;;;5.68;3.95;;;16.40;99.90;;;;;;5074435;28;20027;-46
2022/08/09 05:54:05;;;;;;;6.38;4.07;;;16.60;99.90;;;;;;5072884;28;20422;-45
2022/08/09 05:56:30;;;;;;;12.45;5.03;;;16.70;99.90;;;;;;5068207;28;20043;-45
2022/08/09 05:58:59;;;;;;;10.70;4.25;;;16.80;99.90;;;;;;5068622;28;20499;-44
2022/08/09 06:01:26;;;;;;;7.45;4.05;;;17.00;99.90;;;;;;5068320;28;20028;-45
2022/08/09 06:03:52;;;;;;;12.73;5.22;;;17.10;99.90;;;;;;5067236;28;20032;-45
2022/08/09 06:06:18;;;;;;;6.85;3.83;;;17.20;99.90;;;;;;5068571;28;20033;-45
2022/08/09 06:08:43;;;;;;;6.72;4.90;;;17.30;99.90;;;;;;5083532;28;20024;-46
2022/08/09 06:11:09;;;;;;;4.57;4.18;;;17.40;99.90;;;;;;5087727;28;20394;-44
2022/08/09 06:13:35;;;;;;;6.68;3.88;;;17.50;99.90;;;;;;5087190;28;20111;-45
2022/08/09 06:16:03;;;;;;;7.72;4.47;;;17.50;99.90;;;;;;5080959;28;20024;-48
2022/08/09 06:18:29;;;;;;;7.63;4.82;;;17.60;99.90;;;;;;5079031;28;20052;-47
2022/08/09 06:20:56;;;;;;;4.93;3.95;;;17.80;99.90;;;;;;5057214;28;20118;-45
2022/08/09 06:23:22;;;;;;;7.22;4.15;;;18.00;99.90;;;;;;5074220;28;20524;-46
2022/08/09 06:25:48;;;;;;;8.50;4.57;;;18.00;99.90;;;;;;5078827;28;20185;-45
2022/08/09 06:28:14;;;;;;;5.35;3.80;;;18.10;99.90;;;;;;5086478;28;20169;-44
2022/08/09 06:30:41;;;;;;;9.30;4.68;;;18.20;99.90;;;;;;5086424;28;20140;-45
2022/08/09 06:33:07;;;;;;;6.65;3.78;;;18.30;99.90;;;;;;5077536;28;20156;-45
2022/08/09 06:35:32;;;;;;;6.05;3.85;;;18.50;99.90;;;;;;5067295;28;20214;-45
2022/08/09 06:37:58;;;;;;;4.68;3.85;;;18.50;99.90;;;;;;5067379;28;20106;-45
2022/08/09 06:40:23;;;;;;;9.27;3.97;;;18.60;99.90;;;;;;5067537;28;20032;-43
2022/08/09 06:42:49;;;;;;;5.32;3.78;;;18.70;99.90;;;;;;5066948;28;20025;-44
2022/08/09 06:45:14;;;;;;;9.38;3.72;;;18.70;99.90;;;;;;5067671;28;20036;-45
2022/08/09 06:47:40;;;;;;;6.88;3.50;;;18.70;99.90;;;;;;5067772;28;20033;-44
2022/08/09 06:50:06;;;;;;;5.63;3.88;;;18.70;99.90;;;;;;5083237;28;20028;-46
2022/08/09 06:52:32;;;;;;;5.57;3.80;;;18.80;99.90;;;;;;5087149;28;20521;-44
2022/08/09 06:54:57;;;;;;;4.50;3.30;;;18.90;99.90;;;;;;5086370;28;20020;-43
2022/08/09 06:57:23;;;;;;;5.28;3.80;;;18.90;99.90;;;;;;5089937;28;20227;-43
2022/08/09 06:59:48;;;;;;;6.97;3.70;;;19.00;99.90;;;;;;5091660;28;20035;-43
2022/08/09 07:02:14;;;;;;;4.30;3.45;;;19.10;99.90;;;;;;5091023;28;20030;-44
2022/08/09 07:04:39;;;;;;;8.02;3.90;;;19.10;99.90;;;;;;5092291;28;20028;-44
2022/08/09 07:07:05;;;;;;;6.93;4.50;;;19.20;99.90;;;;;;5092468;28;20498;-43
2022/08/09 07:09:31;;;;;;;9.05;4.00;;;19.30;99.90;;;;;;5092003;28;20270;-46
2022/08/09 07:11:57;;;;;;;5.63;4.15;;;19.40;99.90;;;;;;5087202;28;20020;-44
2022/08/09 07:14:22;;;;;;;8.20;3.90;;;19.50;99.90;;;;;;5091874;28;20051;-46
2022/08/09 07:16:47;;;;;;;5.45;3.38;;;19.60;99.90;;;;;;5079082;28;20037;-44
2022/08/09 07:19:14;;;;;;;6.15;3.97;;;19.70;99.90;;;;;;5080068;28;20711;-44
2022/08/09 07:21:40;;;;;;;8.68;3.78;;;19.90;99.90;;;;;;5063870;28;20504;-44
2022/08/09 07:24:06;;;;;;;6.05;3.40;;;20.00;99.90;;;;;;5050686;28;20033;-45
2022/08/09 07:26:32;;;;;;;5.15;3.28;;;20.00;99.90;;;;;;5056813;28;20031;-46
2022/08/09 07:28:58;;;;;;;5.55;3.90;;;20.10;99.90;;;;;;5082482;28;20045;-43
2022/08/09 07:31:24;;;;;;;5.38;3.50;;;20.10;99.90;;;;;;5090478;28;20020;-44
2022/08/09 07:33:49;;;;;;;5.95;3.58;;;20.20;99.90;;;;;;5089979;28;20104;-44
2022/08/09 07:36:15;;;;;;;5.72;4.05;;;20.20;99.90;;;;;;5091051;28;20099;-43
2022/08/09 07:38:41;;;;;;;4.70;3.90;;;20.20;99.90;;;;;;5089866;28;20502;-45
2022/08/09 07:41:07;;;;;;;8.05;4.20;;;20.20;99.90;;;;;;5090711;28;20024;-45
2022/08/09 07:43:32;;;;;;;5.28;3.75;;;20.30;99.90;;;;;;5091365;28;20065;-46
2022/08/09 07:45:58;;;;;;;4.88;3.55;;;20.50;99.90;;;;;;5091219;28;20043;-43
2022/08/09 07:48:23;;;;;;;5.70;3.65;;;20.60;99.90;;;;;;5090591;28;20028;-46
2022/08/09 07:50:49;;;;;;;8.85;3.97;;;20.70;99.70;;;;;;5090384;28;20055;-43
2022/08/09 07:53:15;;;;;;;7.60;3.97;;;20.90;99.50;;;;;;5090897;28;20444;-45
2022/08/09 07:55:40;;;;;;;6.47;3.20;;;21.20;98.80;;;;;;5090797;28;20089;-47
2022/08/09 07:58:06;;;;;;;6.40;3.28;;;21.40;98.40;;;;;;5086467;28;20028;-44
2022/08/09 08:00:32;;;;;;;6.65;3.55;;;21.50;98.20;;;;;;5081877;28;20422;-44
2022/08/09 08:02:59;;;;;;;9.23;3.90;;;21.60;97.80;;;;;;5090167;28;20024;-46
2022/08/09 08:05:25;;;;;;;6.18;3.80;;;21.80;97.70;;;;;;5090988;28;20183;-44
2022/08/09 08:07:52;;;;;;;6.38;3.20;;;22.10;97.20;;;;;;5090224;28;20024;-44
2022/08/09 08:10:17;;;;;;;6.45;3.70;;;22.30;96.80;;;;;;5089887;28;20034;-45
2022/08/09 08:12:43;;;;;;;5.75;3.58;;;22.40;96.30;;;;;;5089835;28;20367;-44
2022/08/09 08:15:14;;;;;;;4.72;3.45;;;22.60;95.70;;;;;;5085291;28;20432;-44
2022/08/09 08:17:40;;;;;;;6.90;3.30;;;22.90;94.70;;;;;;5075131;28;20162;-45
2022/08/09 08:20:06;;;;;;;7.05;3.63;;;23.00;94.00;;;;;;5089700;28;20036;-44
2022/08/09 08:22:31;;;;;;;4.55;2.90;;;23.40;93.10;;;;;;5089679;28;20020;-44
2022/08/09 08:24:57;;;;;;;6.07;2.78;;;23.50;91.60;;;;;;5079165;28;20143;-47
2022/08/09 08:27:24;;;;;;;4.35;2.55;;;24.00;91.20;;;;;;5088764;28;20026;-43
2022/08/09 08:29:50;;;;;;;6.55;2.90;;;24.60;90.20;;;;;;5090457;28;20024;-44
2022/08/09 08:32:17;;;;;;;5.30;3.00;;;25.40;86.70;;;;;;5090255;28;20028;-45
2022/08/09 08:34:42;;;;;;;6.00;2.72;;;27.00;81.80;;;;;;5083841;28;20046;-45
2022/08/09 08:37:08;;;;;;;3.47;2.53;;;28.20;75.70;;;;;;5081951;28;20032;-44
2022/08/09 08:39:34;;;;;;;3.33;2.30;;;28.90;69.70;;;;;;5090423;28;20418;-45
2022/08/09 08:42:00;;;;;;;2.90;1.90;;;29.80;68.30;;;;;;5088315;28;20085;-47
2022/08/09 08:44:28;;;;;;;4.32;2.33;;;31.20;63.70;;;;;;5090373;28;20048;-47
2022/08/09 08:46:54;;;;;;;3.05;2.58;;;32.40;59.60;;;;;;5090146;28;20496;-45
2022/08/09 08:49:21;;;;;;;3.70;2.20;;;33.30;56.70;;;;;;5089961;28;20030;-44
2022/08/09 08:51:48;;;;;;;2.85;2.30;;;33.60;55.40;;;;;;5089720;28;20023;-45
2022/08/09 08:54:14;;;;;;;3.53;2.65;;;34.50;52.70;;;;;;5090192;28;20020;-44
2022/08/09 08:56:40;;;;;;;3.03;2.05;;;35.40;51.00;;;;;;5090123;28;20399;-45
2022/08/09 08:59:12;;;;;;;4.20;1.85;;;35.80;48.90;;;;;;5090165;28;20081;-45
2022/08/09 09:01:42;;;;;;;2.67;2.33;;;36.10;48.90;;;;;;5089573;28;20028;-46
2022/08/09 09:04:10;;;;;;;4.43;2.30;;;36.60;47.40;;;;;;5085561;28;20021;-46
2022/08/09 09:06:38;;;;;;;2.90;1.90;;;36.80;46.60;;;;;;5081407;28;20023;-45
2022/08/09 09:09:05;;;;;;;4.10;2.23;;;36.90;45.90;;;;;;5089859;28;20483;-48
2022/08/09 09:11:35;;;;;;;3.20;2.10;;;37.00;45.60;;;;;;5089332;28;20406;-47
2022/08/09 09:14:08;;;;;;;3.13;1.90;;;37.50;44.80;;;;;;5089793;28;20043;-45
2022/08/09 09:16:34;;;;;;;4.97;2.15;;;37.80;43.60;;;;;;5089521;28;20032;-47
2022/08/09 09:19:01;;;;;;;4.63;1.95;;;38.60;42.70;;;;;;5089350;28;20074;-46
2022/08/09 09:21:27;;;;;;;3.10;2.50;;;38.40;41.60;;;;;;5085029;28;20027;-45
2022/08/09 09:23:52;;;;;;;6.20;2.38;;;38.60;42.40;;;;;;5076066;28;20021;-48
2022/08/09 09:26:22;;;;;;;4.75;2.10;;;38.50;42.90;;;;;;5086994;28;20021;-46
2022/08/09 09:28:48;;;;;;;3.70;2.40;;;38.60;41.70;;;;;;5087975;28;20082;-46
2022/08/09 09:31:15;;;;;;;3.05;2.28;;;38.30;41.80;;;;;;5089058;28;20462;-46
2022/08/09 09:33:42;;;;;;;4.80;2.15;;;36.50;42.50;;;;;;5089372;28;20027;-48
2022/08/09 09:36:10;;;;;;;4.05;2.17;;;36.60;44.00;;;;;;5089352;28;20122;-47
2022/08/09 09:38:43;;;;;;;2.33;2.00;;;36.90;43.50;;;;;;5089077;28;20153;-46
2022/08/09 09:41:10;;;;;;;2.45;2.08;;;38.70;42.20;;;;;;5088978;28;20032;-46
2022/08/09 09:43:36;;;;;;;2.35;1.92;;;38.90;41.40;;;;;;5088910;28;20483;-45
2022/08/09 09:46:01;;;;;;;3.58;2.30;;;38.70;41.40;;;;;;5076692;28;20024;-45
2022/08/09 09:48:28;;;;;;;7.15;2.63;;;38.40;41.20;;;;;;5087862;28;20020;-46
2022/08/09 09:50:54;;;;;;;3.20;2.30;;;37.30;43.00;;;;;;5087093;28;20386;-46
2022/08/09 09:53:22;;;;;;;3.60;2.40;;;37.60;43.50;;;;;;5088770;28;20320;-48
2022/08/09 09:55:55;;;;;;;5.83;2.23;;;37.70;42.40;;;;;;5089528;28;20022;-45
2022/08/09 09:58:21;;;;;;;3.35;2.20;;;38.10;41.60;;;;;;5089436;28;20738;-47
2022/08/09 10:00:51;;;;;;;2.38;2.10;;;37.20;42.20;;;;;;5088398;28;20028;-44
2022/08/09 10:03:17;;;;;;;6.72;2.67;;;36.20;43.20;;;;;;5087668;28;20031;-46
2022/08/09 10:05:59;;;;;;;3.42;2.40;;;35.30;44.10;;;;;;5089105;28;20031;-45
2022/08/09 10:08:24;;;;;;;5.05;2.05;;;34.50;46.30;;;;;;5088426;28;20378;-47
2022/08/09 10:10:51;;;;;;;4.05;2.15;;;34.70;45.20;;;;;;5086737;28;20111;-47
2022/08/09 10:13:17;;;;;;;3.72;1.70;;;35.10;45.40;;;;;;5088885;28;20024;-48
2022/08/09 10:15:50;;;;;;;3.72;2.20;;;36.00;44.90;;;;;;5081811;28;20532;-44
2022/08/09 10:18:16;;;;;;;5.32;2.33;;;36.00;43.50;;;;;;5085738;28;20472;-46
2022/08/09 10:20:42;;;;;;;3.72;2.17;;;35.80;43.90;;;;;;5088388;28;20027;-47
2022/08/09 10:23:18;;;;;;;3.75;2.15;;;36.40;42.90;;;;;;5081248;28;20261;-46
2022/08/09 10:25:48;;;;;;;5.35;2.35;;;35.90;43.60;;;;;;5074391;28;20027;-45
2022/08/09 10:28:14;;;;;;;;;;;34.70;44.30;;;;;;5089245;28;20036;-45
2022/08/09 10:30:40;;;;;;;3.75;1.98;;;33.50;45.30;;;;;;5082783;28;20428;-47
2022/08/09 10:33:07;;;;;;;3.58;2.47;;;32.70;47.00;;;;;;5079271;28;20035;-44
2022/08/09 10:35:33;;;;;;;2.50;2.28;;;31.80;48.10;;;;;;5088697;28;20086;-46
2022/08/09 10:38:02;;;;;;;2.60;2.40;;;32.40;49.50;;;;;;5082397;28;20487;-46
2022/08/09 10:40:28;;;;;;;4.35;1.80;;;33.50;47.60;;;;;;5079918;28;20032;-44
2022/08/09 10:42:54;;;;;;;2.53;1.88;;;34.80;45.40;;;;;;5084292;28;20032;-46
2022/08/09 10:45:21;;;;;;;5.75;2.13;;;35.50;44.70;;;;;;5079953;28;20032;-47
2022/08/09 10:48:04;;;;;;;2.30;2.08;;;36.80;43.20;;;;;;5088506;28;20020;-48
2022/08/09 10:53:59;;;;;;;3.33;2.20;;;37.50;42.20;;;;;;5088367;28;20403;-48
2022/08/09 10:56:30;;;;;;;2.50;1.77;;;38.60;40.70;;;;;;5085512;28;20120;-45
2022/08/09 10:58:57;;;;;;;3.60;1.98;;;38.50;41.10;;;;;;5088006;28;20028;-45
2022/08/09 11:01:32;;;;;;;5.53;2.05;;;39.40;39.90;;;;;;5087941;28;20383;-46
2022/08/09 11:04:19;;;;;;;3.28;2.08;;;39.10;40.20;;;;;;5088291;28;20111;-48
2022/08/09 11:06:47;;;;;;;3.13;1.92;;;37.70;40.30;;;;;;5088295;28;20021;-45
2022/08/09 11:09:17;;;;;;;3.75;2.40;;;37.00;41.50;;;;;;5088109;28;20028;-45
2022/08/09 11:11:58;;;;;;;3.25;2.45;;;37.20;41.60;;;;;;5087697;28;20027;-45
2022/08/09 11:14:54;;;;;;;2.63;2.22;;;37.50;39.90;;;;;;5076386;28;20036;-46
2022/08/09 11:17:20;;;;;;;3.15;2.33;;;37.90;40.50;;;;;;5060525;28;20127;-48
2022/08/09 11:19:57;;;;;;;5.40;2.47;;;38.20;39.50;;;;;;5081024;28;20107;-45
2022/08/09 11:22:56;;;;;;;2.15;1.92;;;38.40;39.70;;;;;;5081535;28;20376;-44
2022/08/09 11:25:32;;;;;;;2.40;1.80;;;38.70;38.90;;;;;;5079688;28;20493;-47
2022/08/09 11:27:58;;;;;;;3.40;2.00;;;38.60;39.40;;;;;;5084763;28;20054;-45
2022/08/09 11:30:26;;;;;;;2.83;2.00;;;39.00;39.50;;;;;;5079390;28;20483;-45
2022/08/09 11:33:24;;;;;;;4.13;2.22;;;39.00;39.30;;;;;;5087558;28;20024;-45
2022/08/09 11:35:56;;;;;;;7.60;2.00;;;39.30;39.60;;;;;;5088714;28;20027;-48
2022/08/09 11:38:22;;;;;;;4.40;1.70;;;39.20;39.90;;;;;;5081513;28;20033;-45
2022/08/09 11:40:50;;;;;;;4.18;2.30;;;37.70;39.60;;;;;;5079078;28;20050;-47
2022/08/09 11:43:28;;;;;;;4.38;1.83;;;36.60;41.00;;;;;;5087987;28;20031;-45
2022/08/09 11:45:59;;;;;;;3.33;1.92;;;35.20;42.20;;;;;;5084027;28;20331;-44
2022/08/09 11:48:28;;;;;;;2.67;1.83;;;34.20;43.90;;;;;;5082918;28;20483;-45
2022/08/09 11:51:04;;;;;;;3.08;2.10;;;33.50;44.80;;;;;;5090780;28;20100;-46
2022/08/09 11:53:38;;;;;;;4.82;2.63;;;32.40;45.90;;;;;;5091653;28;20447;-45
2022/08/09 11:56:13;;;;;;;6.85;3.03;;;31.60;47.10;;;;;;5091516;28;20028;-45
2022/08/09 11:58:41;;;;;;;4.15;2.50;;;31.10;47.30;;;;;;5091384;28;20028;-47
2022/08/09 12:01:07;;;;;;;3.45;2.40;;;30.80;47.30;;;;;;5090317;28;20445;-47
2022/08/09 12:03:33;;;;;;;2.88;2.00;;;30.70;47.80;;;;;;5084580;28;20119;-44
2022/08/09 12:06:01;;;;;;;4.00;2.20;;;30.40;49.10;;;;;;5082535;28;20035;-44
2022/08/09 12:08:28;;;;;;;5.97;2.13;;;30.80;48.70;;;;;;5091089;28;20034;-44
2022/08/09 12:10:56;;;;;;;3.17;2.30;;;31.70;46.90;;;;;;5090665;28;20145;-48
2022/08/09 12:13:41;;;;;;;2.60;1.70;;;32.20;46.70;;;;;;5090852;28;20028;-47
2022/08/09 12:16:16;;;;;;;4.75;2.22;;;32.60;44.90;;;;;;5090576;28;20038;-45
2022/08/09 12:18:44;;;;;;;2.90;1.85;;;32.80;46.10;;;;;;5091060;28;20024;-48
2022/08/09 12:21:11;;;;;;;2.20;1.73;;;32.90;44.80;;;;;;5090653;28;20039;-44
2022/08/09 12:23:45;;;;;;;2.83;1.73;;;32.60;44.90;;;;;;5082651;28;20024;-44
2022/08/09 12:26:11;;;;;;;2.80;1.60;;;32.70;45.20;;;;;;5085697;28;20063;-43
2022/08/09 12:28:39;;;;;;;4.10;1.42;;;32.70;44.80;;;;;;5090846;28;20032;-44
2022/08/09 12:31:18;;;;;;;2.33;1.58;;;33.00;44.10;;;;;;5088152;28;20027;-44
2022/08/09 12:33:44;;;;;;;3.58;1.33;;;33.20;44.50;;;;;;5076202;28;20039;-43
2022/08/09 12:36:09;;;;;;;2.20;1.70;;;33.60;45.00;;;;;;5091024;28;20107;-44
2022/08/09 12:38:35;;;;;;;4.03;1.60;;;33.90;43.20;;;;;;5090471;28;20073;-47
2022/08/09 12:41:01;;;;;;;2.80;1.58;;;34.20;44.30;;;;;;5084203;28;20040;-45
2022/08/09 12:43:28;;;;;;;3.00;1.80;;;34.20;42.90;;;;;;5081580;28;20027;-45
2022/08/09 12:45:56;;;;;;;2.25;1.80;;;33.90;42.40;;;;;;5089855;28;20054;-44
2022/08/09 12:48:22;;;;;;;2.42;1.45;;;34.00;42.70;;;;;;5077689;28;20028;-46
2022/08/09 12:50:49;;;;;;;2.25;1.50;;;33.40;43.30;;;;;;5089372;28;20551;-45
2022/08/09 12:53:33;;;;;;;3.58;1.85;;;33.30;43.50;;;;;;5090105;28;20497;-47
2022/08/09 12:56:11;;;;;;;5.13;1.55;;;33.00;43.90;;;;;;5089744;28;20510;-48
2022/08/09 12:58:39;;;;;;;2.97;1.85;;;33.00;44.20;;;;;;5090314;28;20032;-45